Time;durP1;ratioP1;P1;durP2;ratioP2;P2;SDS_P1;SDS_P2;PMS_P1;PMS_P2;Temp;Humidity;BMP_temperature;BMP_pressure;BME280_temperature;BME280_humidity;BME280_pressure;Samples;Min_cycle;Max_cycle;Signal;HPM_P1;HPM_P2
2023/12/10 00:00:57;;;;;;;43.50;6.30;;;10.40;99.90;;;;;;4979031;28;36989;-80
2023/12/10 00:03:23;;;;;;;38.20;6.33;;;10.30;99.90;;;;;;4962904;28;40727;-80
2023/12/10 00:05:49;;;;;;;39.57;5.67;;;10.20;99.90;;;;;;4966549;28;38268;-79
2023/12/10 00:08:17;;;;;;;42.03;7.10;;;10.20;99.90;;;;;;4976181;28;39038;-80
2023/12/10 00:10:43;;;;;;;37.37;5.27;;;10.10;99.90;;;;;;4964056;28;38750;-80
2023/12/10 00:13:09;;;;;;;36.03;6.30;;;10.10;99.90;;;;;;4964676;28;37665;-80
2023/12/10 00:15:37;;;;;;;33.70;5.60;;;10.10;99.90;;;;;;4962445;28;37878;-80
2023/12/10 00:18:04;;;;;;;40.83;7.30;;;10.00;99.90;;;;;;4969858;28;37319;-80
2023/12/10 00:20:31;;;;;;;34.67;6.13;;;10.00;99.90;;;;;;4966380;28;37874;-80
2023/12/10 00:22:57;;;;;;;41.30;7.00;;;10.00;99.90;;;;;;4959811;28;39680;-79
2023/12/10 00:25:25;;;;;;;36.20;5.73;;;10.00;99.90;;;;;;4955680;28;40309;-79
2023/12/10 00:27:52;;;;;;;38.90;6.63;;;10.10;99.90;;;;;;4971957;28;38237;-78
2023/12/10 00:30:18;;;;;;;34.37;6.60;;;10.10;99.90;;;;;;4965133;28;37886;-79
2023/12/10 00:32:44;;;;;;;39.83;6.83;;;10.10;99.90;;;;;;4972939;28;38853;-79
2023/12/10 00:35:10;;;;;;;29.67;6.20;;;10.20;99.90;;;;;;4961097;28;37853;-79
2023/12/10 00:37:36;;;;;;;40.30;8.47;;;10.20;99.90;;;;;;4977008;28;39167;-79
2023/12/10 00:40:06;;;;;;;33.77;6.07;;;10.20;99.90;;;;;;4966396;28;36227;-79
2023/12/10 00:42:32;;;;;;;42.30;6.63;;;10.10;99.90;;;;;;4968849;28;46842;-79
2023/12/10 00:44:58;;;;;;;31.20;5.93;;;10.00;99.90;;;;;;4966519;28;37936;-79
2023/12/10 00:47:25;;;;;;;41.87;5.83;;;10.00;99.90;;;;;;4980757;28;40665;-79
2023/12/10 00:49:51;;;;;;;42.67;6.03;;;10.00;99.90;;;;;;4971203;28;37661;-79
2023/12/10 00:52:17;;;;;;;39.03;6.07;;;9.90;99.90;;;;;;4976736;28;41538;-78
2023/12/10 00:54:43;;;;;;;31.40;5.80;;;10.00;99.90;;;;;;4970151;28;39417;-79
2023/12/10 00:57:12;;;;;;;36.97;6.17;;;9.90;99.90;;;;;;4960827;28;38348;-79
2023/12/10 00:59:38;;;;;;;41.20;6.90;;;10.00;99.90;;;;;;4973070;28;37311;-79
2023/12/10 01:02:05;;;;;;;32.50;5.13;;;10.00;99.90;;;;;;4969044;28;38811;-79
2023/12/10 01:04:31;;;;;;;37.90;6.00;;;10.00;99.90;;;;;;4969763;28;39761;-79
2023/12/10 01:06:57;;;;;;;33.20;5.33;;;10.10;99.90;;;;;;4981521;28;39049;-79
2023/12/10 01:09:24;;;;;;;37.37;5.37;;;10.10;99.90;;;;;;4982538;28;37273;-79
2023/12/10 01:11:50;;;;;;;35.33;6.33;;;10.20;99.90;;;;;;4968752;28;38222;-79
2023/12/10 01:14:17;;;;;;;42.17;6.33;;;10.30;99.90;;;;;;4953605;28;39239;-80
2023/12/10 01:16:43;;;;;;;36.47;6.20;;;10.40;99.90;;;;;;4980102;28;39871;-79
2023/12/10 01:19:09;;;;;;;27.53;5.53;;;10.50;99.90;;;;;;4971667;28;38230;-79
2023/12/10 01:21:37;;;;;;;34.63;5.57;;;10.50;99.90;;;;;;4962779;28;37686;-79
2023/12/10 01:24:03;;;;;;;43.00;5.80;;;10.50;99.90;;;;;;4983244;28;39713;-79
2023/12/10 01:26:30;;;;;;;35.27;5.80;;;10.50;97.70;;;;;;4976595;28;38406;-79
2023/12/10 01:28:56;;;;;;;38.47;6.00;;;10.60;97.20;;;;;;4995781;28;35853;-79
2023/12/10 01:31:22;;;;;;;42.40;6.70;;;10.60;95.50;;;;;;4981861;28;38877;-79
2023/12/10 01:33:48;;;;;;;39.23;6.30;;;10.60;96.20;;;;;;4979648;28;39744;-80
2023/12/10 01:36:24;;;;;;;39.63;6.10;;;10.60;93.10;;;;;;4966779;28;37594;-79
2023/12/10 01:38:50;;;;;;;29.93;5.83;;;10.70;92.00;;;;;;4972196;28;36969;-79
2023/12/10 01:41:18;;;;;;;36.13;5.53;;;10.70;89.30;;;;;;4977849;28;38908;-79
2023/12/10 01:43:45;;;;;;;32.00;5.73;;;10.80;83.80;;;;;;4958672;28;38955;-79
2023/12/10 01:46:12;;;;;;;34.40;5.47;;;10.70;91.40;;;;;;4963408;28;39615;-80
2023/12/10 01:48:41;;;;;;;32.67;6.70;;;10.70;86.00;;;;;;4978345;28;38066;-79
2023/12/10 01:51:08;;;;;;;36.03;5.73;;;10.70;90.50;;;;;;4958573;28;37690;-79
2023/12/10 01:53:34;;;;;;;37.77;5.73;;;10.70;90.70;;;;;;4963610;28;39678;-79
2023/12/10 01:56:01;;;;;;;35.73;5.90;;;10.70;88.60;;;;;;4980023;28;37645;-79
2023/12/10 01:58:27;;;;;;;44.73;6.57;;;10.70;83.10;;;;;;4966155;28;35950;-79
2023/12/10 02:03:32;;;;;;;38.23;6.90;;;10.70;80.60;;;;;;4922674;23;19933;-78
2023/12/10 02:05:59;;;;;;;34.50;5.53;;;10.80;82.60;;;;;;4952044;28;38316;-79
2023/12/10 02:08:25;;;;;;;36.40;6.40;;;10.80;80.40;;;;;;4938417;28;37341;-78
2023/12/10 02:10:51;;;;;;;38.27;6.70;;;10.80;69.70;;;;;;4941496;28;38715;-78
2023/12/10 02:13:18;;;;;;;36.10;5.47;;;10.90;73.80;;;;;;4966947;28;38868;-78
2023/12/10 02:15:44;;;;;;;37.37;6.97;;;10.80;72.50;;;;;;4973811;28;37187;-78
2023/12/10 02:18:10;;;;;;;37.40;6.97;;;10.80;74.10;;;;;;4967524;28;35707;-78
2023/12/10 02:20:36;;;;;;;38.43;6.60;;;10.90;67.30;;;;;;4930190;28;41470;-78
2023/12/10 02:23:16;;;;;;;46.93;7.53;;;10.90;69.80;;;;;;4952792;28;40619;-78
2023/12/10 02:25:43;;;;;;;45.17;6.43;;;10.90;71.60;;;;;;4936392;28;38924;-78
2023/12/10 02:28:10;;;;;;;41.10;7.00;;;10.90;72.50;;;;;;4957145;28;36058;-77
2023/12/10 02:30:37;;;;;;;40.10;6.53;;;10.90;69.20;;;;;;4942504;28;38169;-77
2023/12/10 02:33:03;;;;;;;39.23;7.57;;;10.90;70.40;;;;;;4946790;28;37598;-77
2023/12/10 02:35:29;;;;;;;44.47;7.27;;;10.90;71.30;;;;;;4963428;28;38445;-77
2023/12/10 02:37:55;;;;;;;39.80;6.33;;;10.90;71.20;;;;;;4970562;28;36130;-78
2023/12/10 02:40:22;;;;;;;43.63;7.27;;;10.90;75.50;;;;;;4948347;28;38784;-77
2023/12/10 02:42:49;;;;;;;43.47;7.67;;;10.80;67.70;;;;;;4952895;28;37545;-78
2023/12/10 02:45:15;;;;;;;47.20;7.20;;;10.90;72.80;;;;;;4965513;28;38630;-78
2023/12/10 02:47:43;;;;;;;48.17;8.10;;;10.90;70.20;;;;;;4974796;28;38872;-78
2023/12/10 02:50:09;;;;;;;46.60;7.17;;;10.90;67.70;;;;;;4978442;28;38861;-77
2023/12/10 02:52:36;;;;;;;46.90;7.90;;;10.80;67.40;;;;;;4939304;28;38391;-77
2023/12/10 02:55:04;;;;;;;35.20;7.00;;;10.90;66.80;;;;;;4942104;28;37425;-77
2023/12/10 02:57:30;;;;;;;46.33;7.27;;;10.90;68.20;;;;;;4946750;28;47319;-77
2023/12/10 02:59:57;;;;;;;39.87;7.33;;;10.90;73.70;;;;;;4946146;28;38139;-77
2023/12/10 03:02:23;;;;;;;42.50;7.10;;;10.80;77.60;;;;;;4941168;28;37467;-78
2023/12/10 03:04:49;;;;;;;36.73;6.50;;;10.80;71.90;;;;;;4942277;28;37833;-77
2023/12/10 03:07:15;;;;;;;35.50;6.80;;;10.90;63.10;;;;;;4941369;28;37516;-77
2023/12/10 03:09:42;;;;;;;45.13;7.47;;;10.90;69.70;;;;;;4957757;28;39532;-77
2023/12/10 03:12:09;;;;;;;43.67;7.17;;;10.90;65.80;;;;;;4936530;28;39069;-78
2023/12/10 03:14:35;;;;;;;44.03;8.23;;;10.80;66.80;;;;;;4940846;28;40101;-77
2023/12/10 03:17:01;;;;;;;37.33;6.97;;;10.90;67.50;;;;;;4940411;28;36627;-77
2023/12/10 03:19:27;;;;;;;39.60;7.23;;;10.90;63.90;;;;;;4937541;28;47222;-78
2023/12/10 03:21:53;;;;;;;35.40;5.90;;;10.90;61.00;;;;;;4938043;28;37905;-78
2023/12/10 03:24:20;;;;;;;36.30;6.50;;;10.80;61.40;;;;;;4941176;28;37323;-78
2023/12/10 03:26:46;;;;;;;42.80;6.70;;;10.80;63.70;;;;;;4946431;28;36213;-78
2023/12/10 03:29:12;;;;;;;29.87;5.97;;;10.80;60.00;;;;;;4937337;28;37312;-78
2023/12/10 03:31:38;;;;;;;40.67;6.30;;;10.80;60.30;;;;;;4971379;28;38645;-78
2023/12/10 03:34:04;;;;;;;45.27;7.70;;;10.80;61.20;;;;;;4950911;28;38339;-77
2023/12/10 03:36:31;;;;;;;43.97;6.27;;;10.80;58.40;;;;;;4939451;28;36101;-78
2023/12/10 03:38:57;;;;;;;37.13;6.10;;;10.90;58.10;;;;;;4945522;28;39568;-79
2023/12/10 03:41:23;;;;;;;40.10;7.00;;;10.80;59.40;;;;;;4935216;28;37918;-78
2023/12/10 03:43:49;;;;;;;43.43;6.50;;;10.90;62.20;;;;;;4955146;28;38255;-77
2023/12/10 03:46:15;;;;;;;39.60;6.47;;;10.80;63.80;;;;;;4954784;28;37523;-78
2023/12/10 03:48:42;;;;;;;33.70;5.90;;;10.90;59.30;;;;;;4946554;28;37952;-77
2023/12/10 03:51:08;;;;;;;42.87;7.50;;;10.90;61.70;;;;;;4939050;28;37749;-78
2023/12/10 03:53:34;;;;;;;31.67;6.57;;;10.80;65.60;;;;;;4972760;28;39280;-78
2023/12/10 03:56:00;;;;;;;41.03;6.20;;;10.80;64.70;;;;;;4962178;28;38899;-78
2023/12/10 03:58:26;;;;;;;33.37;5.73;;;10.80;70.30;;;;;;4946809;28;46745;-78
2023/12/10 04:00:54;;;;;;;35.63;5.77;;;10.80;65.10;;;;;;4977158;28;39078;-78
2023/12/10 04:03:20;;;;;;;34.73;5.80;;;10.80;60.00;;;;;;4935395;28;37423;-77
2023/12/10 04:05:47;;;;;;;42.13;7.27;;;10.80;62.70;;;;;;4948296;28;36444;-77
2023/12/10 04:08:13;;;;;;;33.97;6.20;;;10.80;62.80;;;;;;4945353;28;38795;-78
2023/12/10 04:10:39;;;;;;;30.03;6.27;;;10.80;63.50;;;;;;4944003;28;37962;-78
2023/12/10 04:13:05;;;;;;;35.00;6.93;;;10.80;64.80;;;;;;4956361;28;38814;-77
2023/12/10 04:15:33;;;;;;;37.87;6.27;;;10.80;63.50;;;;;;4954629;28;36893;-78
2023/12/10 04:18:00;;;;;;;38.97;7.23;;;10.80;65.60;;;;;;4951704;28;39884;-78
2023/12/10 04:20:26;;;;;;;39.43;6.67;;;10.80;59.60;;;;;;4960359;28;37124;-78
2023/12/10 04:22:52;;;;;;;33.63;5.70;;;10.80;60.20;;;;;;4926965;28;37791;-77
2023/12/10 04:25:18;;;;;;;35.70;6.57;;;10.80;60.40;;;;;;4964978;28;36403;-77
2023/12/10 04:27:44;;;;;;;39.67;6.07;;;10.80;59.50;;;;;;4941894;28;37975;-78
2023/12/10 04:30:11;;;;;;;32.27;5.50;;;10.90;57.50;;;;;;4938622;28;38892;-77
2023/12/10 04:32:37;;;;;;;31.00;5.40;;;10.80;59.50;;;;;;4954985;28;38231;-78
2023/12/10 04:35:04;;;;;;;32.03;6.17;;;10.80;60.40;;;;;;4931951;28;37532;-78
2023/12/10 04:37:30;;;;;;;33.40;6.77;;;10.80;59.40;;;;;;4958819;28;47350;-78
2023/12/10 04:39:57;;;;;;;30.73;5.27;;;10.80;59.20;;;;;;4967643;28;37984;-78
2023/12/10 04:42:23;;;;;;;29.93;5.97;;;10.80;56.10;;;;;;4955064;28;38544;-77
2023/12/10 04:44:49;;;;;;;37.57;6.93;;;10.90;50.70;;;;;;4938132;28;36242;-78
2023/12/10 04:47:16;;;;;;;36.27;5.30;;;10.90;47.50;;;;;;4933398;28;39300;-78
2023/12/10 04:49:43;;;;;;;37.87;6.40;;;10.90;52.50;;;;;;4946916;28;37657;-77
2023/12/10 04:52:09;;;;;;;33.03;6.60;;;10.90;52.00;;;;;;4945030;28;37907;-77
2023/12/10 04:54:35;;;;;;;29.00;5.83;;;10.90;50.20;;;;;;4938272;28;36437;-77
2023/12/10 04:57:01;;;;;;;30.67;4.97;;;10.90;51.30;;;;;;4941792;28;38198;-79
2023/12/10 04:59:28;;;;;;;32.80;5.93;;;10.90;55.50;;;;;;4939494;28;47386;-79
2023/12/10 05:01:54;;;;;;;34.10;5.33;;;10.80;56.10;;;;;;4942933;28;38864;-79
2023/12/10 05:04:20;;;;;;;30.27;6.07;;;10.80;56.30;;;;;;4936007;28;37376;-79
2023/12/10 05:06:46;;;;;;;26.63;5.03;;;10.80;53.00;;;;;;4957512;28;39785;-79
2023/12/10 05:09:12;;;;;;;32.97;5.63;;;10.80;57.60;;;;;;4948306;28;37935;-79
2023/12/10 05:11:39;;;;;;;30.43;5.87;;;10.80;49.80;;;;;;4953783;28;39502;-78
2023/12/10 05:14:08;;;;;;;30.30;4.97;;;10.80;50.40;;;;;;4938236;28;37653;-77
2023/12/10 05:16:34;;;;;;;26.37;4.97;;;10.80;51.40;;;;;;4939390;28;39241;-77
2023/12/10 05:19:00;;;;;;;32.63;6.03;;;10.80;54.30;;;;;;4954550;28;38932;-78
2023/12/10 05:21:26;;;;;;;31.93;5.80;;;10.80;50.70;;;;;;4967251;28;46574;-78
2023/12/10 05:23:52;;;;;;;38.40;6.17;;;10.80;53.10;;;;;;4948189;28;37251;-79
2023/12/10 05:26:19;;;;;;;40.17;6.27;;;10.80;51.70;;;;;;4935483;28;38682;-78
2023/12/10 05:28:45;;;;;;;30.93;6.77;;;10.80;49.50;;;;;;4932907;28;38646;-78
2023/12/10 05:31:11;;;;;;;39.47;5.90;;;10.80;49.60;;;;;;4933955;28;37481;-78
2023/12/10 05:33:37;;;;;;;31.10;5.37;;;10.80;47.00;;;;;;4932864;28;36856;-78
2023/12/10 05:36:04;;;;;;;39.57;5.23;;;10.80;48.50;;;;;;4934936;28;37842;-78
2023/12/10 05:38:30;;;;;;;34.00;5.43;;;10.80;48.20;;;;;;4934242;28;38726;-80
2023/12/10 05:40:56;;;;;;;31.73;6.53;;;10.90;42.30;;;;;;4939453;28;37678;-78
2023/12/10 05:43:22;;;;;;;30.50;5.97;;;10.90;46.30;;;;;;4955479;28;38332;-78
2023/12/10 05:45:48;;;;;;;29.03;5.43;;;10.90;40.10;;;;;;4954936;28;38658;-78
2023/12/10 05:48:15;;;;;;;38.17;5.40;;;10.90;47.60;;;;;;4946589;28;37481;-77
2023/12/10 05:50:41;;;;;;;33.40;7.27;;;10.90;42.90;;;;;;4942898;28;37198;-78
2023/12/10 05:53:07;;;;;;;30.07;5.37;;;10.90;44.40;;;;;;4934222;28;35688;-77
2023/12/10 05:55:33;;;;;;;33.93;5.23;;;10.90;42.70;;;;;;4936161;28;37817;-78
2023/12/10 05:57:59;;;;;;;33.23;5.17;;;10.90;47.80;;;;;;4971957;28;37775;-78
2023/12/10 06:00:25;;;;;;;33.67;6.10;;;10.80;49.80;;;;;;4941128;28;37408;-78
2023/12/10 06:02:51;;;;;;;35.90;5.10;;;10.80;51.60;;;;;;4957606;28;37660;-77
2023/12/10 06:05:18;;;;;;;29.73;5.03;;;10.80;49.90;;;;;;4961181;28;38402;-77
2023/12/10 06:07:44;;;;;;;39.07;6.53;;;10.80;42.50;;;;;;4959056;28;38717;-77
2023/12/10 06:10:12;;;;;;;36.17;5.23;;;10.80;39.90;;;;;;4945885;28;20044;-78
2023/12/10 06:12:38;;;;;;;38.27;5.17;;;10.80;40.50;;;;;;4972666;28;36718;-79
2023/12/10 06:15:04;;;;;;;30.70;6.93;;;10.80;42.80;;;;;;4969976;28;38751;-79
2023/12/10 06:17:34;;;;;;;31.23;5.47;;;10.80;50.80;;;;;;4954738;28;38556;-79
2023/12/10 06:20:00;;;;;;;36.20;5.13;;;10.80;47.00;;;;;;4941279;28;38612;-79
2023/12/10 06:22:27;;;;;;;35.00;5.77;;;10.70;48.60;;;;;;4936259;28;35660;-79
2023/12/10 06:24:54;;;;;;;29.20;5.47;;;10.70;48.00;;;;;;4955918;28;39072;-79
2023/12/10 06:27:20;;;;;;;26.13;4.70;;;10.70;49.40;;;;;;4944734;28;37965;-80
2023/12/10 06:29:46;;;;;;;25.87;4.77;;;10.80;46.40;;;;;;4942212;28;38920;-79
2023/12/10 06:32:13;;;;;;;30.53;5.87;;;10.70;50.60;;;;;;4975466;28;36159;-81
2023/12/10 06:34:39;;;;;;;32.80;5.17;;;10.70;51.60;;;;;;4941375;28;37814;-79
2023/12/10 06:37:05;;;;;;;43.83;5.90;;;10.70;49.60;;;;;;4942893;28;40225;-79
2023/12/10 06:39:32;;;;;;;27.07;5.20;;;10.70;51.40;;;;;;4941348;28;37664;-79
2023/12/10 06:41:59;;;;;;;37.80;5.70;;;10.70;52.50;;;;;;4956172;28;37324;-79
2023/12/10 06:44:27;;;;;;;31.10;5.47;;;10.70;55.80;;;;;;4951538;28;39232;-80
2023/12/10 06:46:53;;;;;;;31.67;4.83;;;10.70;54.90;;;;;;4956663;28;37706;-79
2023/12/10 06:49:19;;;;;;;30.30;5.07;;;10.70;53.20;;;;;;4942826;28;37993;-79
2023/12/10 06:51:46;;;;;;;33.53;5.47;;;10.70;54.40;;;;;;4954608;28;37343;-79
2023/12/10 06:54:12;;;;;;;33.97;5.67;;;10.70;57.10;;;;;;4951779;28;39886;-79
2023/12/10 06:56:40;;;;;;;36.33;6.37;;;10.70;58.20;;;;;;4946889;28;39576;-79
2023/12/10 06:59:07;;;;;;;37.27;6.03;;;10.60;63.70;;;;;;4932947;28;37439;-79
2023/12/10 07:01:37;;;;;;;35.03;5.23;;;10.60;60.60;;;;;;4970601;28;36162;-81
2023/12/10 07:04:07;;;;;;;32.63;5.20;;;10.60;63.40;;;;;;4962762;28;38820;-78
2023/12/10 07:06:34;;;;;;;30.13;5.03;;;10.60;64.50;;;;;;4937195;28;37757;-78
2023/12/10 07:09:00;;;;;;;28.57;5.03;;;10.60;65.00;;;;;;4937137;28;37249;-79
2023/12/10 07:11:27;;;;;;;32.07;5.27;;;10.60;69.60;;;;;;4953316;28;49063;-79
2023/12/10 07:13:53;;;;;;;35.13;5.53;;;10.50;72.90;;;;;;4939210;28;38651;-79
2023/12/10 07:16:20;;;;;;;30.27;4.90;;;10.60;73.20;;;;;;4951304;28;38950;-79
2023/12/10 07:18:46;;;;;;;27.37;4.70;;;10.60;74.80;;;;;;4956295;28;38302;-79
2023/12/10 07:21:13;;;;;;;32.27;5.83;;;10.50;73.00;;;;;;4963401;28;36893;-78
2023/12/10 07:23:39;;;;;;;37.00;5.77;;;10.60;75.10;;;;;;4936793;28;37580;-78
2023/12/10 07:26:06;;;;;;;38.03;6.33;;;10.60;76.40;;;;;;4958346;28;39021;-79
2023/12/10 07:28:32;;;;;;;29.43;5.57;;;10.60;81.90;;;;;;4937945;28;37167;-78
2023/12/10 07:30:58;;;;;;;41.90;5.83;;;10.60;82.50;;;;;;4971371;28;37718;-79
2023/12/10 07:33:24;;;;;;;29.10;4.73;;;10.60;84.80;;;;;;4934288;28;37751;-79
2023/12/10 07:35:50;;;;;;;38.60;6.03;;;10.50;86.00;;;;;;4960817;28;39739;-81
2023/12/10 07:38:17;;;;;;;39.37;5.40;;;10.50;88.50;;;;;;4936279;28;39022;-79
2023/12/10 07:40:43;;;;;;;38.57;6.43;;;10.50;87.80;;;;;;4937450;28;37727;-78
2023/12/10 07:43:09;;;;;;;33.20;5.03;;;10.60;86.10;;;;;;4949898;28;38452;-77
2023/12/10 07:45:36;;;;;;;24.33;4.37;;;10.60;87.40;;;;;;4959194;28;38570;-78
2023/12/10 07:48:02;;;;;;;23.53;4.50;;;10.50;85.60;;;;;;4941321;28;37608;-77
2023/12/10 07:50:29;;;;;;;38.03;5.93;;;10.50;87.50;;;;;;4949246;28;36992;-78
2023/12/10 07:52:55;;;;;;;31.43;5.43;;;10.50;84.80;;;;;;4961091;28;39729;-78
2023/12/10 07:55:21;;;;;;;30.17;5.33;;;10.50;84.50;;;;;;4946673;28;38631;-78
2023/12/10 07:57:47;;;;;;;32.63;5.10;;;10.50;86.00;;;;;;4941352;28;37681;-77
2023/12/10 08:00:14;;;;;;;38.27;4.70;;;10.50;90.10;;;;;;4970939;28;34730;-78
2023/12/10 08:02:40;;;;;;;40.13;6.40;;;10.50;84.70;;;;;;4952973;28;37941;-77
2023/12/10 08:05:07;;;;;;;34.87;5.17;;;10.50;82.30;;;;;;4934305;28;37901;-78
2023/12/10 08:07:33;;;;;;;28.90;4.87;;;10.50;81.20;;;;;;4939548;28;37476;-78
2023/12/10 08:10:00;;;;;;;28.63;4.87;;;10.50;78.60;;;;;;4977649;28;36171;-77
2023/12/10 08:12:26;;;;;;;34.13;5.00;;;10.50;77.60;;;;;;4939949;28;37662;-77
2023/12/10 08:14:52;;;;;;;31.13;5.00;;;10.50;79.40;;;;;;4936340;28;38630;-79
2023/12/10 08:17:18;;;;;;;35.87;5.57;;;10.50;78.60;;;;;;4931869;28;37359;-78
2023/12/10 08:19:45;;;;;;;32.87;5.20;;;10.50;81.50;;;;;;4931358;28;37450;-78
2023/12/10 08:22:13;;;;;;;29.70;5.03;;;10.50;82.20;;;;;;4932067;28;38911;-78
2023/12/10 08:24:40;;;;;;;32.40;4.53;;;10.60;79.70;;;;;;4935272;28;37768;-77
2023/12/10 08:27:06;;;;;;;35.63;5.53;;;10.50;78.30;;;;;;4946490;28;39867;-77
2023/12/10 08:29:33;;;;;;;29.83;5.03;;;10.50;82.60;;;;;;4940072;28;35955;-77
2023/12/10 08:31:59;;;;;;;39.77;5.27;;;10.50;86.50;;;;;;4941987;28;39344;-77
2023/12/10 08:34:25;;;;;;;35.77;5.67;;;10.40;90.70;;;;;;4966819;28;38604;-78
2023/12/10 08:36:51;;;;;;;28.83;4.57;;;10.40;93.30;;;;;;4946606;28;40309;-78
2023/12/10 08:39:17;;;;;;;33.53;6.30;;;10.40;93.00;;;;;;4960155;28;37255;-80
2023/12/10 08:41:46;;;;;;;27.33;5.97;;;10.30;94.80;;;;;;4941369;28;38009;-77
2023/12/10 08:44:13;;;;;;;28.97;4.90;;;10.30;94.50;;;;;;4964294;28;38873;-77
2023/12/10 08:46:39;;;;;;;33.37;5.03;;;10.30;94.90;;;;;;4951789;28;38317;-78
2023/12/10 08:49:05;;;;;;;31.57;5.97;;;10.30;95.50;;;;;;4947947;28;38271;-78
2023/12/10 08:51:32;;;;;;;28.63;5.43;;;10.30;96.30;;;;;;4937030;28;39007;-77
2023/12/10 08:53:59;;;;;;;36.07;5.37;;;10.20;97.40;;;;;;4969758;28;39192;-78
2023/12/10 08:56:26;;;;;;;28.27;4.63;;;10.20;98.00;;;;;;4936392;28;37214;-78
2023/12/10 08:58:52;;;;;;;32.20;5.27;;;10.20;97.90;;;;;;4940412;28;36563;-78
2023/12/10 09:01:19;;;;;;;36.33;6.03;;;10.20;99.70;;;;;;4941125;28;37685;-78
2023/12/10 09:03:45;;;;;;;35.17;5.37;;;10.20;98.20;;;;;;4937663;28;37655;-78
2023/12/10 09:06:12;;;;;;;38.17;5.80;;;10.30;98.00;;;;;;4978991;28;37168;-78
2023/12/10 09:08:41;;;;;;;28.67;5.10;;;10.30;97.70;;;;;;4935338;28;36663;-78
2023/12/10 09:11:08;;;;;;;32.00;5.10;;;10.40;96.50;;;;;;4930162;28;37959;-78
2023/12/10 09:13:35;;;;;;;31.70;5.43;;;10.40;96.20;;;;;;4927536;28;38670;-79
2023/12/10 09:16:01;;;;;;;37.60;7.33;;;10.40;95.20;;;;;;4947001;28;38560;-78
2023/12/10 09:18:27;;;;;;;29.67;4.83;;;10.40;95.60;;;;;;4933763;28;47474;-80
2023/12/10 09:20:54;;;;;;;39.73;6.33;;;10.40;95.60;;;;;;4939116;28;38047;-78
2023/12/10 09:23:21;;;;;;;29.23;4.50;;;10.40;95.30;;;;;;4935448;28;39419;-79
2023/12/10 09:25:48;;;;;;;36.13;5.73;;;10.40;96.90;;;;;;4943746;28;37798;-80
2023/12/10 09:28:14;;;;;;;32.80;5.50;;;10.40;95.60;;;;;;4951530;28;37136;-77
2023/12/10 09:30:40;;;;;;;25.83;5.67;;;10.50;94.80;;;;;;4962330;28;37798;-78
2023/12/10 09:33:06;;;;;;;31.03;5.00;;;10.50;96.00;;;;;;4937991;28;39129;-79
2023/12/10 09:35:33;;;;;;;35.30;5.40;;;10.60;95.50;;;;;;4939425;28;38838;-78
2023/12/10 09:38:03;;;;;;;33.17;5.00;;;10.60;95.20;;;;;;4935756;28;36191;-78
2023/12/10 09:40:33;;;;;;;29.40;4.63;;;10.60;94.00;;;;;;4964938;28;47168;-77
2023/12/10 09:43:01;;;;;;;29.00;5.00;;;10.60;94.30;;;;;;4931035;28;39661;-78
2023/12/10 09:45:31;;;;;;;25.10;4.10;;;10.60;94.50;;;;;;4930709;28;47194;-79
2023/12/10 09:47:59;;;;;;;26.80;4.77;;;10.60;94.40;;;;;;4930430;28;37067;-78
2023/12/10 09:50:25;;;;;;;29.83;5.10;;;10.60;95.30;;;;;;4933609;28;38789;-78
2023/12/10 09:52:53;;;;;;;24.13;4.67;;;10.60;94.00;;;;;;4937654;28;37807;-78
2023/12/10 09:55:19;;;;;;;26.97;4.93;;;10.70;94.90;;;;;;4939653;28;37680;-78
2023/12/10 09:57:46;;;;;;;25.73;4.57;;;10.60;93.80;;;;;;4975031;28;36597;-77
2023/12/10 10:00:13;;;;;;;31.50;4.17;;;10.70;95.90;;;;;;4933656;28;37510;-77
2023/12/10 10:02:39;;;;;;;29.03;4.93;;;10.60;96.70;;;;;;4933195;28;38322;-77
2023/12/10 10:05:10;;;;;;;25.73;5.00;;;10.70;97.60;;;;;;4945194;28;37377;-77
2023/12/10 10:07:36;;;;;;;30.53;5.23;;;10.70;99.00;;;;;;4941251;28;47779;-78
2023/12/10 10:10:05;;;;;;;33.33;5.37;;;10.70;99.90;;;;;;4919937;28;38787;-78
2023/12/10 10:12:33;;;;;;;31.37;5.00;;;10.70;99.90;;;;;;4927311;28;47296;-78
2023/12/10 10:15:00;;;;;;;30.27;4.97;;;10.80;99.90;;;;;;4929779;28;37502;-79
2023/12/10 10:17:30;;;;;;;36.33;5.53;;;10.80;99.90;;;;;;4928442;28;37178;-78
2023/12/10 10:19:59;;;;;;;36.27;6.07;;;10.90;99.90;;;;;;4934344;28;37661;-77
2023/12/10 10:22:27;;;;;;;26.70;5.23;;;11.00;99.90;;;;;;4934137;28;37850;-78
2023/12/10 10:24:55;;;;;;;33.03;6.73;;;11.00;99.90;;;;;;4930498;28;37304;-77
2023/12/10 10:27:21;;;;;;;33.27;5.70;;;11.10;99.90;;;;;;4932021;28;37544;-78
2023/12/10 10:29:54;;;;;;;24.70;4.57;;;11.20;99.90;;;;;;4944693;28;39337;-77
2023/12/10 10:32:27;;;;;;;28.35;4.78;;;11.30;99.90;;;;;;4929267;28;38615;-77
2023/12/10 10:34:55;;;;;;;25.67;4.07;;;11.30;99.90;;;;;;4957472;28;38347;-76
2023/12/10 10:37:21;;;;;;;25.53;4.20;;;11.40;99.90;;;;;;4964476;28;35963;-77
2023/12/10 10:39:50;;;;;;;25.93;4.10;;;11.40;99.90;;;;;;4944867;28;38817;-77
2023/12/10 10:42:19;;;;;;;25.37;4.33;;;11.50;99.90;;;;;;4947057;28;39147;-77
2023/12/10 10:44:48;;;;;;;22.33;3.90;;;11.50;98.40;;;;;;4931932;28;38576;-78
2023/12/10 10:47:18;;;;;;;33.47;4.13;;;11.40;99.00;;;;;;4928400;28;37408;-77
2023/12/10 10:50:01;;;;;;;21.50;4.00;;;11.40;98.40;;;;;;4921420;28;37642;-77
2023/12/10 10:52:31;;;;;;;24.87;3.83;;;11.30;99.80;;;;;;4945657;28;38601;-77
2023/12/10 10:54:59;;;;;;;23.30;3.97;;;11.30;99.90;;;;;;4932462;28;37844;-77
2023/12/10 10:57:35;;;;;;;28.70;4.50;;;11.20;99.90;;;;;;4944182;28;36036;-76
2023/12/10 11:00:17;;;;;;;24.00;4.30;;;11.30;99.90;;;;;;4957942;28;38635;-76
2023/12/10 11:02:45;;;;;;;28.80;4.30;;;11.20;99.90;;;;;;4954771;28;37519;-78
2023/12/10 11:05:13;;;;;;;20.87;4.20;;;11.10;99.90;;;;;;4944097;28;37995;-77
2023/12/10 11:07:42;;;;;;;21.77;4.27;;;11.10;99.90;;;;;;4925312;28;37735;-75
2023/12/10 11:10:08;;;;;;;25.60;3.50;;;11.10;99.90;;;;;;4928734;28;38521;-76
2023/12/10 11:12:40;;;;;;;19.40;4.13;;;11.10;99.90;;;;;;4944335;28;38303;-74
2023/12/10 11:15:18;;;;;;;31.77;3.63;;;11.10;99.90;;;;;;4948745;28;37489;-76
2023/12/10 11:17:51;;;;;;;21.70;3.67;;;11.10;99.90;;;;;;4949027;28;37141;-75
2023/12/10 11:20:33;;;;;;;29.15;3.95;;;11.10;99.90;;;;;;4930535;28;37587;-75
2023/12/10 11:23:08;;;;;;;23.95;3.42;;;11.10;99.90;;;;;;4962975;28;38381;-74
2023/12/10 11:25:35;;;;;;;25.83;4.03;;;11.10;99.90;;;;;;4925310;28;47579;-75
2023/12/10 11:28:12;;;;;;;22.17;4.30;;;11.10;99.90;;;;;;4923084;28;36246;-74
2023/12/10 11:30:39;;;;;;;20.07;3.40;;;11.10;99.90;;;;;;4946084;28;46999;-75
2023/12/10 11:33:06;;;;;;;26.87;3.80;;;11.00;99.90;;;;;;4944824;28;38601;-75
2023/12/10 11:35:33;;;;;;;25.83;4.63;;;11.00;99.90;;;;;;4937201;28;37318;-74
2023/12/10 11:37:59;;;;;;;27.47;4.47;;;10.90;99.90;;;;;;4962375;28;37258;-75
2023/12/10 11:40:26;;;;;;;23.40;4.30;;;11.00;99.90;;;;;;4943756;28;39035;-76
2023/12/10 11:42:52;;;;;;;25.63;4.80;;;11.00;99.90;;;;;;4945666;28;39277;-77
2023/12/10 11:45:18;;;;;;;23.87;4.60;;;11.00;99.90;;;;;;4936128;28;37591;-77
2023/12/10 11:47:46;;;;;;;30.13;4.63;;;11.00;99.90;;;;;;4944277;28;37000;-78
2023/12/10 11:50:14;;;;;;;33.87;6.17;;;11.10;99.90;;;;;;4933072;28;38939;-78
2023/12/10 11:52:40;;;;;;;27.80;4.63;;;11.10;99.90;;;;;;4930158;28;38371;-78
2023/12/10 11:55:07;;;;;;;33.70;5.43;;;11.10;99.90;;;;;;4964337;28;37520;-79
2023/12/10 11:57:33;;;;;;;36.73;6.43;;;11.10;99.90;;;;;;4964077;28;36487;-79
2023/12/10 12:00:06;;;;;;;35.07;4.87;;;11.00;99.90;;;;;;4936556;28;37816;-78
2023/12/10 12:02:34;;;;;;;37.28;4.88;;;11.10;99.90;;;;;;4927957;28;37707;-77
2023/12/10 12:05:00;;;;;;;32.77;4.93;;;11.20;99.90;;;;;;4953033;28;37378;-80
2023/12/10 12:07:28;;;;;;;31.58;4.25;;;11.30;99.90;;;;;;4941744;28;36005;-79
2023/12/10 12:09:55;;;;;;;33.27;4.83;;;11.30;99.90;;;;;;4926376;28;38417;-79
2023/12/10 12:12:22;;;;;;;31.20;5.13;;;11.30;99.90;;;;;;4945388;28;38599;-79
2023/12/10 12:14:51;;;;;;;38.40;5.70;;;11.30;99.90;;;;;;4934114;28;37707;-79
2023/12/10 12:17:22;;;;;;;31.20;6.20;;;11.30;99.90;;;;;;4942930;28;37797;-79
2023/12/10 12:19:48;;;;;;;34.33;6.17;;;11.30;99.90;;;;;;4930699;28;39368;-78
2023/12/10 12:22:15;;;;;;;37.27;5.80;;;11.30;99.90;;;;;;4943530;28;39549;-79
2023/12/10 12:24:43;;;;;;;39.03;6.73;;;11.40;99.90;;;;;;4933493;28;37725;-79
2023/12/10 12:27:11;;;;;;;34.77;6.77;;;11.40;99.90;;;;;;4930218;28;36019;-79
2023/12/10 12:29:37;;;;;;;37.47;6.57;;;11.40;99.90;;;;;;4936174;28;41253;-79
2023/12/10 12:32:04;;;;;;;40.40;6.07;;;11.40;99.90;;;;;;4965237;28;39133;-78
2023/12/10 12:34:31;;;;;;;54.03;8.65;;;11.30;99.90;;;;;;4938104;28;37720;-79
2023/12/10 12:36:57;;;;;;;43.47;7.63;;;11.30;99.90;;;;;;4936798;28;36343;-80